sensor_id;sensor_type;location;lat;lon;timestamp;P1;durP1;ratioP1;P2;durP2;ratioP2
14975;SDS011;7584;60.468;25.126;2023-05-29T00:02:03;10.63;;;3.57;;
14975;SDS011;7584;60.468;25.126;2023-05-29T00:04:28;13.70;;;3.53;;
14975;SDS011;7584;60.468;25.126;2023-05-29T00:06:54;10.53;;;3.63;;
14975;SDS011;7584;60.468;25.126;2023-05-29T00:09:20;9.23;;;4.10;;
14975;SDS011;7584;60.468;25.126;2023-05-29T00:11:45;12.60;;;3.67;;
14975;SDS011;7584;60.468;25.126;2023-05-29T00:14:15;9.77;;;3.53;;
14975;SDS011;7584;60.468;25.126;2023-05-29T00:16:44;8.77;;;3.90;;
14975;SDS011;7584;60.468;25.126;2023-05-29T00:19:09;11.60;;;3.10;;
14975;SDS011;7584;60.468;25.126;2023-05-29T00:21:34;13.60;;;3.90;;
14975;SDS011;7584;60.468;25.126;2023-05-29T00:24:00;9.73;;;3.57;;
14975;SDS011;7584;60.468;25.126;2023-05-29T00:26:25;12.07;;;3.60;;
14975;SDS011;7584;60.468;25.126;2023-05-29T00:28:51;9.43;;;3.57;;
14975;SDS011;7584;60.468;25.126;2023-05-29T00:31:16;17.33;;;4.27;;
14975;SDS011;7584;60.468;25.126;2023-05-29T00:33:41;11.00;;;3.20;;
14975;SDS011;7584;60.468;25.126;2023-05-29T00:36:07;9.87;;;3.80;;
14975;SDS011;7584;60.468;25.126;2023-05-29T00:38:32;10.27;;;3.57;;
14975;SDS011;7584;60.468;25.126;2023-05-29T00:40:58;10.10;;;2.93;;
14975;SDS011;7584;60.468;25.126;2023-05-29T00:43:24;11.10;;;3.90;;
14975;SDS011;7584;60.468;25.126;2023-05-29T00:45:49;10.20;;;4.00;;
14975;SDS011;7584;60.468;25.126;2023-05-29T00:48:15;8.73;;;3.73;;
14975;SDS011;7584;60.468;25.126;2023-05-29T00:50:40;8.83;;;3.80;;
14975;SDS011;7584;60.468;25.126;2023-05-29T00:53:06;16.03;;;4.07;;
14975;SDS011;7584;60.468;25.126;2023-05-29T00:55:33;7.33;;;3.77;;
14975;SDS011;7584;60.468;25.126;2023-05-29T00:57:59;10.20;;;3.80;;
14975;SDS011;7584;60.468;25.126;2023-05-29T01:00:24;8.63;;;4.23;;
14975;SDS011;7584;60.468;25.126;2023-05-29T01:02:49;13.47;;;3.83;;
14975;SDS011;7584;60.468;25.126;2023-05-29T01:05:17;9.33;;;4.03;;
14975;SDS011;7584;60.468;25.126;2023-05-29T01:07:44;12.57;;;3.50;;
14975;SDS011;7584;60.468;25.126;2023-05-29T01:10:09;10.30;;;3.90;;
14975;SDS011;7584;60.468;25.126;2023-05-29T01:12:47;8.43;;;3.77;;
14975;SDS011;7584;60.468;25.126;2023-05-29T01:18:13;13.40;;;4.43;;
14975;SDS011;7584;60.468;25.126;2023-05-29T01:34:23;10.63;;;4.00;;
14975;SDS011;7584;60.468;25.126;2023-05-29T01:36:48;7.13;;;3.80;;
14975;SDS011;7584;60.468;25.126;2023-05-29T01:39:14;12.27;;;4.33;;
14975;SDS011;7584;60.468;25.126;2023-05-29T01:41:39;12.20;;;4.30;;
14975;SDS011;7584;60.468;25.126;2023-05-29T01:44:06;11.87;;;3.83;;
14975;SDS011;7584;60.468;25.126;2023-05-29T01:46:33;10.40;;;4.20;;
14975;SDS011;7584;60.468;25.126;2023-05-29T01:49:00;8.97;;;3.37;;
14975;SDS011;7584;60.468;25.126;2023-05-29T01:51:25;11.17;;;4.17;;
14975;SDS011;7584;60.468;25.126;2023-05-29T01:53:51;10.57;;;3.83;;
14975;SDS011;7584;60.468;25.126;2023-05-29T01:56:16;8.70;;;3.47;;
14975;SDS011;7584;60.468;25.126;2023-05-29T01:58:42;8.97;;;4.77;;
14975;SDS011;7584;60.468;25.126;2023-05-29T02:01:08;8.27;;;4.03;;
14975;SDS011;7584;60.468;25.126;2023-05-29T02:03:34;10.07;;;4.20;;
14975;SDS011;7584;60.468;25.126;2023-05-29T02:05:59;8.77;;;3.30;;
14975;SDS011;7584;60.468;25.126;2023-05-29T02:08:25;8.87;;;3.60;;
14975;SDS011;7584;60.468;25.126;2023-05-29T02:10:51;8.43;;;3.63;;
14975;SDS011;7584;60.468;25.126;2023-05-29T02:13:16;7.97;;;2.87;;
14975;SDS011;7584;60.468;25.126;2023-05-29T02:15:41;10.10;;;3.70;;
14975;SDS011;7584;60.468;25.126;2023-05-29T02:18:10;7.97;;;3.13;;
14975;SDS011;7584;60.468;25.126;2023-05-29T02:20:37;9.93;;;3.53;;
14975;SDS011;7584;60.468;25.126;2023-05-29T02:23:02;8.67;;;3.50;;
14975;SDS011;7584;60.468;25.126;2023-05-29T02:25:27;5.67;;;2.80;;
14975;SDS011;7584;60.468;25.126;2023-05-29T02:27:53;6.80;;;3.40;;
14975;SDS011;7584;60.468;25.126;2023-05-29T02:30:18;6.90;;;3.07;;
14975;SDS011;7584;60.468;25.126;2023-05-29T02:32:43;6.03;;;2.83;;
14975;SDS011;7584;60.468;25.126;2023-05-29T02:35:08;7.33;;;3.17;;
14975;SDS011;7584;60.468;25.126;2023-05-29T02:37:34;6.27;;;3.23;;
14975;SDS011;7584;60.468;25.126;2023-05-29T02:39:59;6.03;;;2.93;;
14975;SDS011;7584;60.468;25.126;2023-05-29T02:42:24;3.20;;;2.13;;
14975;SDS011;7584;60.468;25.126;2023-05-29T02:44:50;4.93;;;2.43;;
14975;SDS011;7584;60.468;25.126;2023-05-29T02:47:15;6.67;;;2.20;;
14975;SDS011;7584;60.468;25.126;2023-05-29T02:49:40;7.00;;;2.10;;
14975;SDS011;7584;60.468;25.126;2023-05-29T02:52:06;5.03;;;2.57;;
14975;SDS011;7584;60.468;25.126;2023-05-29T02:54:31;4.47;;;2.70;;
14975;SDS011;7584;60.468;25.126;2023-05-29T02:56:56;3.87;;;2.20;;
14975;SDS011;7584;60.468;25.126;2023-05-29T02:59:22;4.93;;;2.23;;
14975;SDS011;7584;60.468;25.126;2023-05-29T03:01:47;4.87;;;2.23;;
14975;SDS011;7584;60.468;25.126;2023-05-29T03:04:13;2.67;;;1.93;;
14975;SDS011;7584;60.468;25.126;2023-05-29T03:06:39;2.50;;;2.03;;
14975;SDS011;7584;60.468;25.126;2023-05-29T03:09:04;3.33;;;2.00;;
14975;SDS011;7584;60.468;25.126;2023-05-29T03:11:30;4.63;;;2.27;;
14975;SDS011;7584;60.468;25.126;2023-05-29T03:13:56;3.33;;;1.90;;
14975;SDS011;7584;60.468;25.126;2023-05-29T03:16:21;4.47;;;2.00;;
14975;SDS011;7584;60.468;25.126;2023-05-29T03:18:46;3.43;;;2.10;;
14975;SDS011;7584;60.468;25.126;2023-05-29T03:21:12;4.50;;;1.90;;
14975;SDS011;7584;60.468;25.126;2023-05-29T03:23:37;3.90;;;2.20;;
14975;SDS011;7584;60.468;25.126;2023-05-29T03:26:02;2.53;;;1.77;;
14975;SDS011;7584;60.468;25.126;2023-05-29T03:28:28;2.90;;;1.70;;
14975;SDS011;7584;60.468;25.126;2023-05-29T03:30:54;2.53;;;1.80;;
14975;SDS011;7584;60.468;25.126;2023-05-29T03:33:19;3.10;;;1.90;;
14975;SDS011;7584;60.468;25.126;2023-05-29T03:35:44;3.30;;;1.80;;
14975;SDS011;7584;60.468;25.126;2023-05-29T03:38:10;3.00;;;1.70;;
14975;SDS011;7584;60.468;25.126;2023-05-29T03:40:35;2.77;;;1.70;;
14975;SDS011;7584;60.468;25.126;2023-05-29T03:43:00;4.00;;;1.90;;
14975;SDS011;7584;60.468;25.126;2023-05-29T03:45:26;2.53;;;1.80;;
14975;SDS011;7584;60.468;25.126;2023-05-29T03:47:51;7.57;;;1.97;;
14975;SDS011;7584;60.468;25.126;2023-05-29T03:50:16;3.87;;;1.73;;
14975;SDS011;7584;60.468;25.126;2023-05-29T03:52:41;2.03;;;1.60;;
14975;SDS011;7584;60.468;25.126;2023-05-29T03:55:08;2.53;;;1.30;;
14975;SDS011;7584;60.468;25.126;2023-05-29T03:57:33;2.07;;;1.47;;
14975;SDS011;7584;60.468;25.126;2023-05-29T03:59:59;5.60;;;1.47;;
14975;SDS011;7584;60.468;25.126;2023-05-29T04:02:25;3.13;;;1.90;;
14975;SDS011;7584;60.468;25.126;2023-05-29T04:04:50;2.23;;;1.40;;
14975;SDS011;7584;60.468;25.126;2023-05-29T04:07:17;2.80;;;1.40;;
14975;SDS011;7584;60.468;25.126;2023-05-29T04:09:43;4.43;;;1.40;;
14975;SDS011;7584;60.468;25.126;2023-05-29T04:12:09;1.80;;;1.20;;
14975;SDS011;7584;60.468;25.126;2023-05-29T04:14:34;2.20;;;1.27;;
14975;SDS011;7584;60.468;25.126;2023-05-29T04:16:59;3.03;;;1.17;;
14975;SDS011;7584;60.468;25.126;2023-05-29T04:19:24;3.93;;;1.30;;
14975;SDS011;7584;60.468;25.126;2023-05-29T04:21:50;2.47;;;1.00;;
14975;SDS011;7584;60.468;25.126;2023-05-29T04:24:15;2.80;;;0.90;;
14975;SDS011;7584;60.468;25.126;2023-05-29T04:26:40;1.73;;;1.10;;
14975;SDS011;7584;60.468;25.126;2023-05-29T04:29:09;2.63;;;1.10;;
14975;SDS011;7584;60.468;25.126;2023-05-29T04:31:34;3.43;;;1.27;;
14975;SDS011;7584;60.468;25.126;2023-05-29T04:34:01;3.27;;;1.37;;
14975;SDS011;7584;60.468;25.126;2023-05-29T04:36:29;3.13;;;1.03;;
14975;SDS011;7584;60.468;25.126;2023-05-29T04:38:57;1.27;;;1.10;;
14975;SDS011;7584;60.468;25.126;2023-05-29T04:41:23;3.40;;;1.07;;
14975;SDS011;7584;60.468;25.126;2023-05-29T04:43:53;2.13;;;0.90;;
14975;SDS011;7584;60.468;25.126;2023-05-29T04:46:20;1.60;;;1.00;;
14975;SDS011;7584;60.468;25.126;2023-05-29T04:48:45;4.07;;;1.30;;
14975;SDS011;7584;60.468;25.126;2023-05-29T04:51:11;2.27;;;1.20;;
14975;SDS011;7584;60.468;25.126;2023-05-29T04:53:39;9.17;;;1.20;;
14975;SDS011;7584;60.468;25.126;2023-05-29T04:56:08;3.80;;;1.30;;
14975;SDS011;7584;60.468;25.126;2023-05-29T04:58:34;1.23;;;1.00;;
14975;SDS011;7584;60.468;25.126;2023-05-29T05:00:59;3.13;;;0.90;;
14975;SDS011;7584;60.468;25.126;2023-05-29T05:03:24;4.57;;;1.10;;
14975;SDS011;7584;60.468;25.126;2023-05-29T05:05:50;3.40;;;0.93;;
14975;SDS011;7584;60.468;25.126;2023-05-29T05:08:16;2.67;;;0.77;;
14975;SDS011;7584;60.468;25.126;2023-05-29T05:10:42;3.50;;;1.03;;
14975;SDS011;7584;60.468;25.126;2023-05-29T05:13:07;1.80;;;0.83;;
14975;SDS011;7584;60.468;25.126;2023-05-29T05:15:32;3.63;;;1.43;;
14975;SDS011;7584;60.468;25.126;2023-05-29T05:17:58;4.93;;;0.97;;
14975;SDS011;7584;60.468;25.126;2023-05-29T05:20:23;2.13;;;0.82;;
14975;SDS011;7584;60.468;25.126;2023-05-29T05:22:48;2.75;;;0.70;;
14975;SDS011;7584;60.468;25.126;2023-05-29T05:25:13;1.48;;;1.00;;
14975;SDS011;7584;60.468;25.126;2023-05-29T05:27:39;2.05;;;0.70;;
14975;SDS011;7584;60.468;25.126;2023-05-29T05:30:05;1.85;;;0.85;;
14975;SDS011;7584;60.468;25.126;2023-05-29T05:32:30;0.88;;;0.60;;
14975;SDS011;7584;60.468;25.126;2023-05-29T05:34:55;6.10;;;0.77;;
14975;SDS011;7584;60.468;25.126;2023-05-29T05:37:21;1.85;;;0.80;;
14975;SDS011;7584;60.468;25.126;2023-05-29T05:39:48;1.23;;;0.63;;
14975;SDS011;7584;60.468;25.126;2023-05-29T05:42:13;0.88;;;0.50;;
14975;SDS011;7584;60.468;25.126;2023-05-29T05:44:39;0.85;;;0.60;;
14975;SDS011;7584;60.468;25.126;2023-05-29T05:47:04;1.63;;;0.57;;
14975;SDS011;7584;60.468;25.126;2023-05-29T05:49:29;1.48;;;0.52;;
14975;SDS011;7584;60.468;25.126;2023-05-29T05:51:55;2.78;;;0.65;;
14975;SDS011;7584;60.468;25.126;2023-05-29T05:54:20;1.10;;;0.63;;
14975;SDS011;7584;60.468;25.126;2023-05-29T05:56:45;1.42;;;0.52;;
14975;SDS011;7584;60.468;25.126;2023-05-29T05:59:10;2.10;;;0.70;;
14975;SDS011;7584;60.468;25.126;2023-05-29T06:01:36;1.48;;;0.35;;
14975;SDS011;7584;60.468;25.126;2023-05-29T06:04:02;1.10;;;0.50;;
14975;SDS011;7584;60.468;25.126;2023-05-29T06:06:27;1.40;;;0.47;;
14975;SDS011;7584;60.468;25.126;2023-05-29T06:08:52;1.77;;;0.60;;
14975;SDS011;7584;60.468;25.126;2023-05-29T06:11:18;2.53;;;0.60;;
14975;SDS011;7584;60.468;25.126;2023-05-29T06:13:43;2.58;;;0.50;;
14975;SDS011;7584;60.468;25.126;2023-05-29T06:16:08;0.75;;;0.45;;
14975;SDS011;7584;60.468;25.126;2023-05-29T06:18:33;1.10;;;0.40;;
14975;SDS011;7584;60.468;25.126;2023-05-29T06:20:59;0.75;;;0.47;;
14975;SDS011;7584;60.468;25.126;2023-05-29T06:23:25;1.52;;;0.50;;
14975;SDS011;7584;60.468;25.126;2023-05-29T06:25:50;1.13;;;0.47;;
14975;SDS011;7584;60.468;25.126;2023-05-29T06:28:16;0.85;;;0.45;;
14975;SDS011;7584;60.468;25.126;2023-05-29T06:30:41;0.85;;;0.35;;
14975;SDS011;7584;60.468;25.126;2023-05-29T06:33:07;0.80;;;0.30;;
14975;SDS011;7584;60.468;25.126;2023-05-29T06:35:32;0.98;;;0.40;;
14975;SDS011;7584;60.468;25.126;2023-05-29T06:37:57;0.82;;;0.30;;
14975;SDS011;7584;60.468;25.126;2023-05-29T06:40:23;1.77;;;0.30;;
14975;SDS011;7584;60.468;25.126;2023-05-29T06:42:48;2.05;;;0.47;;
14975;SDS011;7584;60.468;25.126;2023-05-29T06:45:13;2.40;;;0.40;;
14975;SDS011;7584;60.468;25.126;2023-05-29T06:47:39;1.05;;;0.40;;
14975;SDS011;7584;60.468;25.126;2023-05-29T06:50:05;0.95;;;0.43;;
14975;SDS011;7584;60.468;25.126;2023-05-29T06:52:31;1.40;;;0.40;;
14975;SDS011;7584;60.468;25.126;2023-05-29T06:54:56;2.20;;;0.45;;
14975;SDS011;7584;60.468;25.126;2023-05-29T06:57:21;1.20;;;0.30;;
14975;SDS011;7584;60.468;25.126;2023-05-29T06:59:47;0.68;;;0.50;;
14975;SDS011;7584;60.468;25.126;2023-05-29T07:02:12;1.75;;;0.40;;
14975;SDS011;7584;60.468;25.126;2023-05-29T07:04:37;0.40;;;0.20;;
14975;SDS011;7584;60.468;25.126;2023-05-29T07:07:03;2.08;;;0.50;;
14975;SDS011;7584;60.468;25.126;2023-05-29T07:09:28;4.07;;;0.52;;
14975;SDS011;7584;60.468;25.126;2023-05-29T07:11:53;2.75;;;0.50;;
14975;SDS011;7584;60.468;25.126;2023-05-29T07:14:18;2.00;;;0.70;;
14975;SDS011;7584;60.468;25.126;2023-05-29T07:16:44;2.78;;;0.45;;
14975;SDS011;7584;60.468;25.126;2023-05-29T07:19:09;1.70;;;0.43;;
14975;SDS011;7584;60.468;25.126;2023-05-29T07:21:36;2.30;;;0.35;;
14975;SDS011;7584;60.468;25.126;2023-05-29T07:24:01;3.63;;;0.43;;
14975;SDS011;7584;60.468;25.126;2023-05-29T07:26:26;3.85;;;0.40;;
14975;SDS011;7584;60.468;25.126;2023-05-29T07:28:52;1.75;;;0.40;;
14975;SDS011;7584;60.468;25.126;2023-05-29T07:31:17;5.05;;;0.40;;
14975;SDS011;7584;60.468;25.126;2023-05-29T07:33:42;1.33;;;0.55;;
14975;SDS011;7584;60.468;25.126;2023-05-29T07:36:08;1.02;;;0.40;;
14975;SDS011;7584;60.468;25.126;2023-05-29T07:38:33;1.20;;;0.47;;
14975;SDS011;7584;60.468;25.126;2023-05-29T07:40:58;5.47;;;0.50;;
14975;SDS011;7584;60.468;25.126;2023-05-29T07:43:23;1.58;;;0.30;;
14975;SDS011;7584;60.468;25.126;2023-05-29T07:45:49;1.63;;;0.43;;
14975;SDS011;7584;60.468;25.126;2023-05-29T07:48:14;2.83;;;0.60;;
14975;SDS011;7584;60.468;25.126;2023-05-29T07:50:39;0.63;;;0.40;;
14975;SDS011;7584;60.468;25.126;2023-05-29T07:53:05;1.42;;;0.50;;
14975;SDS011;7584;60.468;25.126;2023-05-29T07:55:31;0.57;;;0.40;;
14975;SDS011;7584;60.468;25.126;2023-05-29T07:57:56;1.70;;;0.45;;
14975;SDS011;7584;60.468;25.126;2023-05-29T08:00:21;0.70;;;0.32;;
14975;SDS011;7584;60.468;25.126;2023-05-29T08:02:47;1.75;;;0.40;;
14975;SDS011;7584;60.468;25.126;2023-05-29T08:05:12;2.85;;;0.50;;
14975;SDS011;7584;60.468;25.126;2023-05-29T08:07:38;1.25;;;0.38;;
14975;SDS011;7584;60.468;25.126;2023-05-29T08:10:04;1.25;;;0.40;;
14975;SDS011;7584;60.468;25.126;2023-05-29T08:12:30;1.65;;;0.45;;
14975;SDS011;7584;60.468;25.126;2023-05-29T08:14:56;1.52;;;0.43;;
14975;SDS011;7584;60.468;25.126;2023-05-29T08:17:21;2.53;;;0.77;;
14975;SDS011;7584;60.468;25.126;2023-05-29T08:19:46;1.25;;;0.47;;
14975;SDS011;7584;60.468;25.126;2023-05-29T08:22:12;1.67;;;0.65;;
14975;SDS011;7584;60.468;25.126;2023-05-29T08:24:37;4.35;;;0.70;;
14975;SDS011;7584;60.468;25.126;2023-05-29T08:27:03;0.85;;;0.40;;
14975;SDS011;7584;60.468;25.126;2023-05-29T08:29:28;2.80;;;0.40;;
14975;SDS011;7584;60.468;25.126;2023-05-29T08:31:53;1.13;;;0.32;;
14975;SDS011;7584;60.468;25.126;2023-05-29T08:34:19;2.22;;;0.80;;
14975;SDS011;7584;60.468;25.126;2023-05-29T08:36:44;2.15;;;0.40;;
14975;SDS011;7584;60.468;25.126;2023-05-29T08:39:10;1.27;;;0.40;;
14975;SDS011;7584;60.468;25.126;2023-05-29T08:41:41;2.13;;;0.40;;
14975;SDS011;7584;60.468;25.126;2023-05-29T08:44:07;1.30;;;0.30;;
14975;SDS011;7584;60.468;25.126;2023-05-29T08:46:33;2.55;;;0.60;;
14975;SDS011;7584;60.468;25.126;2023-05-29T08:48:58;1.75;;;0.47;;
14975;SDS011;7584;60.468;25.126;2023-05-29T08:51:25;3.13;;;0.50;;
14975;SDS011;7584;60.468;25.126;2023-05-29T08:53:54;3.13;;;0.63;;
14975;SDS011;7584;60.468;25.126;2023-05-29T08:56:20;2.10;;;0.50;;
14975;SDS011;7584;60.468;25.126;2023-05-29T08:58:47;3.10;;;0.43;;
14975;SDS011;7584;60.468;25.126;2023-05-29T09:01:12;2.25;;;0.60;;
14975;SDS011;7584;60.468;25.126;2023-05-29T09:03:38;1.17;;;0.50;;
14975;SDS011;7584;60.468;25.126;2023-05-29T09:06:03;2.05;;;0.40;;
14975;SDS011;7584;60.468;25.126;2023-05-29T09:08:29;1.20;;;0.35;;
14975;SDS011;7584;60.468;25.126;2023-05-29T09:10:54;1.48;;;0.38;;
14975;SDS011;7584;60.468;25.126;2023-05-29T09:13:20;1.60;;;0.50;;
14975;SDS011;7584;60.468;25.126;2023-05-29T09:15:46;4.22;;;0.55;;
14975;SDS011;7584;60.468;25.126;2023-05-29T09:18:11;2.30;;;0.40;;
14975;SDS011;7584;60.468;25.126;2023-05-29T09:20:36;1.25;;;0.52;;
14975;SDS011;7584;60.468;25.126;2023-05-29T09:23:02;3.92;;;0.60;;
14975;SDS011;7584;60.468;25.126;2023-05-29T09:25:29;1.15;;;0.50;;
14975;SDS011;7584;60.468;25.126;2023-05-29T09:28:03;2.88;;;0.57;;
14975;SDS011;7584;60.468;25.126;2023-05-29T09:30:31;0.52;;;0.43;;
14975;SDS011;7584;60.468;25.126;2023-05-29T09:32:57;1.15;;;0.40;;
14975;SDS011;7584;60.468;25.126;2023-05-29T09:35:23;3.97;;;0.50;;
14975;SDS011;7584;60.468;25.126;2023-05-29T09:37:48;0.73;;;0.50;;
14975;SDS011;7584;60.468;25.126;2023-05-29T09:40:15;2.72;;;0.60;;
14975;SDS011;7584;60.468;25.126;2023-05-29T09:42:40;2.03;;;0.60;;
14975;SDS011;7584;60.468;25.126;2023-05-29T09:45:06;0.47;;;0.35;;
14975;SDS011;7584;60.468;25.126;2023-05-29T09:47:35;1.38;;;0.40;;
14975;SDS011;7584;60.468;25.126;2023-05-29T09:50:00;0.88;;;0.30;;
14975;SDS011;7584;60.468;25.126;2023-05-29T09:52:26;0.85;;;0.38;;
14975;SDS011;7584;60.468;25.126;2023-05-29T09:54:55;1.15;;;0.50;;
14975;SDS011;7584;60.468;25.126;2023-05-29T09:57:21;1.27;;;0.38;;
14975;SDS011;7584;60.468;25.126;2023-05-29T09:59:48;0.88;;;0.50;;
14975;SDS011;7584;60.468;25.126;2023-05-29T10:02:16;3.50;;;0.45;;
14975;SDS011;7584;60.468;25.126;2023-05-29T10:04:42;2.60;;;0.50;;
14975;SDS011;7584;60.468;25.126;2023-05-29T10:07:28;1.05;;;0.40;;
14975;SDS011;7584;60.468;25.126;2023-05-29T10:09:57;1.65;;;0.43;;
14975;SDS011;7584;60.468;25.126;2023-05-29T10:12:25;1.55;;;0.57;;
14975;SDS011;7584;60.468;25.126;2023-05-29T10:14:52;1.20;;;0.35;;
14975;SDS011;7584;60.468;25.126;2023-05-29T10:17:19;2.65;;;0.40;;
14975;SDS011;7584;60.468;25.126;2023-05-29T10:19:47;1.35;;;0.65;;
14975;SDS011;7584;60.468;25.126;2023-05-29T10:22:14;1.35;;;0.60;;
14975;SDS011;7584;60.468;25.126;2023-05-29T10:24:41;1.83;;;0.60;;
14975;SDS011;7584;60.468;25.126;2023-05-29T10:27:06;3.25;;;0.70;;
14975;SDS011;7584;60.468;25.126;2023-05-29T10:29:43;1.02;;;0.57;;
14975;SDS011;7584;60.468;25.126;2023-05-29T10:37:15;3.40;;;0.40;;
14975;SDS011;7584;60.468;25.126;2023-05-29T10:39:43;1.65;;;0.50;;
14975;SDS011;7584;60.468;25.126;2023-05-29T10:44:52;2.17;;;0.60;;
14975;SDS011;7584;60.468;25.126;2023-05-29T10:47:23;6.35;;;0.55;;
14975;SDS011;7584;60.468;25.126;2023-05-29T10:49:49;1.55;;;0.70;;
14975;SDS011;7584;60.468;25.126;2023-05-29T10:52:15;0.55;;;0.32;;
14975;SDS011;7584;60.468;25.126;2023-05-29T10:54:50;4.50;;;0.52;;
14975;SDS011;7584;60.468;25.126;2023-05-29T10:57:16;2.50;;;0.60;;
14975;SDS011;7584;60.468;25.126;2023-05-29T10:59:41;0.55;;;0.30;;
14975;SDS011;7584;60.468;25.126;2023-05-29T11:02:06;1.80;;;0.55;;
14975;SDS011;7584;60.468;25.126;2023-05-29T11:04:32;1.30;;;0.40;;
14975;SDS011;7584;60.468;25.126;2023-05-29T11:06:58;1.42;;;0.47;;
14975;SDS011;7584;60.468;25.126;2023-05-29T11:15:11;1.00;;;0.43;;
14975;SDS011;7584;60.468;25.126;2023-05-29T11:20:03;1.35;;;0.50;;
14975;SDS011;7584;60.468;25.126;2023-05-29T11:23:01;1.60;;;0.50;;
14975;SDS011;7584;60.468;25.126;2023-05-29T11:25:27;1.25;;;0.50;;
14975;SDS011;7584;60.468;25.126;2023-05-29T11:27:52;2.17;;;0.50;;
14975;SDS011;7584;60.468;25.126;2023-05-29T11:30:18;0.95;;;0.50;;
14975;SDS011;7584;60.468;25.126;2023-05-29T11:32:44;0.93;;;0.30;;
14975;SDS011;7584;60.468;25.126;2023-05-29T11:35:10;0.75;;;0.43;;
14975;SDS011;7584;60.468;25.126;2023-05-29T11:37:36;1.95;;;0.60;;
14975;SDS011;7584;60.468;25.126;2023-05-29T11:40:06;1.83;;;0.50;;
14975;SDS011;7584;60.468;25.126;2023-05-29T11:42:32;0.80;;;0.50;;
14975;SDS011;7584;60.468;25.126;2023-05-29T11:45:11;1.13;;;0.38;;
14975;SDS011;7584;60.468;25.126;2023-05-29T11:47:56;2.40;;;0.80;;
14975;SDS011;7584;60.468;25.126;2023-05-29T11:50:22;3.55;;;0.70;;
14975;SDS011;7584;60.468;25.126;2023-05-29T11:52:47;3.63;;;0.70;;
14975;SDS011;7584;60.468;25.126;2023-05-29T11:55:12;2.17;;;0.65;;
14975;SDS011;7584;60.468;25.126;2023-05-29T11:57:38;1.00;;;0.57;;
14975;SDS011;7584;60.468;25.126;2023-05-29T12:00:04;2.40;;;0.60;;
14975;SDS011;7584;60.468;25.126;2023-05-29T12:02:35;5.30;;;0.70;;
14975;SDS011;7584;60.468;25.126;2023-05-29T12:05:01;3.38;;;0.57;;
14975;SDS011;7584;60.468;25.126;2023-05-29T12:07:26;2.58;;;0.52;;
14975;SDS011;7584;60.468;25.126;2023-05-29T12:09:52;1.25;;;0.47;;
14975;SDS011;7584;60.468;25.126;2023-05-29T12:12:22;2.50;;;0.60;;
14975;SDS011;7584;60.468;25.126;2023-05-29T12:14:51;3.22;;;0.60;;
14975;SDS011;7584;60.468;25.126;2023-05-29T12:17:16;1.55;;;0.52;;
14975;SDS011;7584;60.468;25.126;2023-05-29T12:19:42;1.55;;;0.40;;
14975;SDS011;7584;60.468;25.126;2023-05-29T12:22:07;1.15;;;0.40;;
14975;SDS011;7584;60.468;25.126;2023-05-29T12:24:34;2.13;;;0.50;;
14975;SDS011;7584;60.468;25.126;2023-05-29T12:26:59;1.95;;;0.60;;
14975;SDS011;7584;60.468;25.126;2023-05-29T12:29:29;1.52;;;0.47;;
14975;SDS011;7584;60.468;25.126;2023-05-29T12:31:58;1.05;;;0.40;;
14975;SDS011;7584;60.468;25.126;2023-05-29T12:34:23;1.65;;;0.60;;
14975;SDS011;7584;60.468;25.126;2023-05-29T12:36:48;1.52;;;0.55;;
14975;SDS011;7584;60.468;25.126;2023-05-29T12:39:14;1.60;;;0.60;;
14975;SDS011;7584;60.468;25.126;2023-05-29T12:41:39;2.30;;;0.70;;
14975;SDS011;7584;60.468;25.126;2023-05-29T12:44:05;2.67;;;0.70;;
14975;SDS011;7584;60.468;25.126;2023-05-29T12:46:40;0.73;;;0.40;;
14975;SDS011;7584;60.468;25.126;2023-05-29T12:49:12;2.17;;;0.60;;
14975;SDS011;7584;60.468;25.126;2023-05-29T12:51:39;1.23;;;0.50;;
14975;SDS011;7584;60.468;25.126;2023-05-29T12:54:05;3.25;;;0.68;;
14975;SDS011;7584;60.468;25.126;2023-05-29T12:56:30;2.95;;;0.55;;
14975;SDS011;7584;60.468;25.126;2023-05-29T12:58:55;7.45;;;0.90;;
14975;SDS011;7584;60.468;25.126;2023-05-29T13:01:21;2.25;;;0.60;;
14975;SDS011;7584;60.468;25.126;2023-05-29T13:03:47;1.77;;;0.50;;
14975;SDS011;7584;60.468;25.126;2023-05-29T13:06:12;5.80;;;0.88;;
14975;SDS011;7584;60.468;25.126;2023-05-29T13:08:37;3.10;;;0.60;;
14975;SDS011;7584;60.468;25.126;2023-05-29T13:11:03;2.85;;;0.73;;
14975;SDS011;7584;60.468;25.126;2023-05-29T13:13:28;0.90;;;0.40;;
14975;SDS011;7584;60.468;25.126;2023-05-29T13:15:53;1.52;;;0.60;;
14975;SDS011;7584;60.468;25.126;2023-05-29T13:18:19;0.95;;;0.50;;
14975;SDS011;7584;60.468;25.126;2023-05-29T13:20:44;3.25;;;0.52;;
14975;SDS011;7584;60.468;25.126;2023-05-29T13:23:09;0.82;;;0.55;;
14975;SDS011;7584;60.468;25.126;2023-05-29T13:25:34;2.15;;;0.55;;
14975;SDS011;7584;60.468;25.126;2023-05-29T13:28:00;2.47;;;0.40;;
14975;SDS011;7584;60.468;25.126;2023-05-29T13:30:25;2.17;;;0.60;;
14975;SDS011;7584;60.468;25.126;2023-05-29T13:32:52;2.30;;;0.47;;
14975;SDS011;7584;60.468;25.126;2023-05-29T13:35:17;3.67;;;0.50;;
14975;SDS011;7584;60.468;25.126;2023-05-29T13:37:42;0.63;;;0.32;;
14975;SDS011;7584;60.468;25.126;2023-05-29T13:40:08;1.65;;;0.60;;
14975;SDS011;7584;60.468;25.126;2023-05-29T13:42:38;1.27;;;0.50;;
14975;SDS011;7584;60.468;25.126;2023-05-29T13:45:04;2.55;;;0.55;;
14975;SDS011;7584;60.468;25.126;2023-05-29T13:47:29;2.78;;;0.47;;
14975;SDS011;7584;60.468;25.126;2023-05-29T13:49:57;2.60;;;0.70;;
14975;SDS011;7584;60.468;25.126;2023-05-29T13:52:22;2.55;;;0.60;;
14975;SDS011;7584;60.468;25.126;2023-05-29T13:54:47;1.02;;;0.40;;
14975;SDS011;7584;60.468;25.126;2023-05-29T13:57:13;1.25;;;0.60;;
14975;SDS011;7584;60.468;25.126;2023-05-29T13:59:38;0.70;;;0.38;;
14975;SDS011;7584;60.468;25.126;2023-05-29T14:02:03;0.63;;;0.30;;
14975;SDS011;7584;60.468;25.126;2023-05-29T14:04:29;1.48;;;0.50;;
14975;SDS011;7584;60.468;25.126;2023-05-29T14:06:55;0.93;;;0.50;;
14975;SDS011;7584;60.468;25.126;2023-05-29T14:09:21;7.38;;;0.80;;
14975;SDS011;7584;60.468;25.126;2023-05-29T14:11:52;1.55;;;0.40;;
14975;SDS011;7584;60.468;25.126;2023-05-29T14:14:18;1.63;;;0.40;;
14975;SDS011;7584;60.468;25.126;2023-05-29T14:16:43;2.45;;;0.43;;
14975;SDS011;7584;60.468;25.126;2023-05-29T14:19:09;0.70;;;0.57;;
14975;SDS011;7584;60.468;25.126;2023-05-29T14:21:34;0.73;;;0.43;;
14975;SDS011;7584;60.468;25.126;2023-05-29T14:24:00;4.82;;;0.60;;
14975;SDS011;7584;60.468;25.126;2023-05-29T14:26:26;1.38;;;0.40;;
14975;SDS011;7584;60.468;25.126;2023-05-29T14:28:51;0.50;;;0.32;;
14975;SDS011;7584;60.468;25.126;2023-05-29T14:31:16;0.50;;;0.40;;
14975;SDS011;7584;60.468;25.126;2023-05-29T14:33:42;0.68;;;0.28;;
14975;SDS011;7584;60.468;25.126;2023-05-29T14:36:07;1.35;;;0.40;;
14975;SDS011;7584;60.468;25.126;2023-05-29T14:38:32;1.08;;;0.43;;
14975;SDS011;7584;60.468;25.126;2023-05-29T14:40:58;1.88;;;0.50;;
14975;SDS011;7584;60.468;25.126;2023-05-29T14:43:23;0.55;;;0.38;;
14975;SDS011;7584;60.468;25.126;2023-05-29T14:45:48;3.17;;;0.50;;
14975;SDS011;7584;60.468;25.126;2023-05-29T14:48:13;4.32;;;0.50;;
14975;SDS011;7584;60.468;25.126;2023-05-29T14:50:41;0.90;;;0.40;;
14975;SDS011;7584;60.468;25.126;2023-05-29T14:53:06;0.63;;;0.43;;
14975;SDS011;7584;60.468;25.126;2023-05-29T14:55:31;1.88;;;0.50;;
14975;SDS011;7584;60.468;25.126;2023-05-29T14:58:02;2.60;;;0.47;;
14975;SDS011;7584;60.468;25.126;2023-05-29T15:00:28;2.60;;;0.60;;
14975;SDS011;7584;60.468;25.126;2023-05-29T15:02:53;1.00;;;0.38;;
14975;SDS011;7584;60.468;25.126;2023-05-29T15:05:21;1.98;;;0.47;;
14975;SDS011;7584;60.468;25.126;2023-05-29T15:07:47;1.77;;;0.50;;
14975;SDS011;7584;60.468;25.126;2023-05-29T15:10:12;0.90;;;0.60;;
14975;SDS011;7584;60.468;25.126;2023-05-29T15:12:37;2.20;;;0.50;;